Time;durP1;ratioP1;P1;durP2;ratioP2;P2;SDS_P1;SDS_P2;PMS_P1;PMS_P2;Temp;Humidity;BMP_temperature;BMP_pressure;BME280_temperature;BME280_humidity;BME280_pressure;Samples;Min_cycle;Max_cycle;Signal;HPM_P1;HPM_P2
2021/11/22 00:00:46;;;;;;;24.65;13.73;;;;;;;;;;5088645;28;20115;-68
2021/11/22 00:03:11;;;;;;;21.02;13.50;;;;;;;;;;5077277;28;20063;-68
2021/11/22 00:05:37;;;;;;;24.38;13.65;;;;;;;;;;5056481;28;20166;-68
2021/11/22 00:08:02;;;;;;;22.77;13.85;;;;;;;;;;5069552;28;20112;-68
2021/11/22 00:10:28;;;;;;;22.35;13.45;;;;;;;;;;5082756;28;20579;-68
2021/11/22 00:12:53;;;;;;;23.00;14.15;;;;;;;;;;5091151;28;20020;-68
2021/11/22 00:15:19;;;;;;;22.75;14.20;;;;;;;;;;5106301;28;20019;-68
2021/11/22 00:17:45;;;;;;;23.15;13.80;;;;;;;;;;5073341;28;20028;-68
2021/11/22 00:20:12;;;;;;;20.83;13.82;;;;;;;;;;5104047;28;20110;-68
2021/11/22 00:22:38;;;;;;;25.80;13.85;;;;;;;;;;5101331;28;20020;-67
2021/11/22 00:25:03;;;;;;;19.73;12.63;;;;;;;;;;5091724;28;20027;-68
2021/11/22 00:27:28;;;;;;;22.77;15.23;;;;;;;;;;5091702;28;20034;-67
2021/11/22 00:29:54;;;;;;;24.23;14.35;;;;;;;;;;5102471;28;20024;-68
2021/11/22 00:32:19;;;;;;;23.98;14.55;;;;;;;;;;5079645;28;20098;-68
2021/11/22 00:34:44;;;;;;;21.52;14.32;;;;;;;;;;5106650;28;20353;-68
2021/11/22 00:37:20;;;;;;;21.13;14.82;;;;;;;;;;5101002;28;20433;-68
2021/11/22 00:39:45;;;;;;;25.05;14.35;;;;;;;;;;5093538;28;20053;-68
2021/11/22 00:42:11;;;;;;;21.92;13.90;;;;;;;;;;5104101;28;20020;-68
2021/11/22 00:44:37;;;;;;;25.08;14.55;;;;;;;;;;5085518;28;20051;-69
2021/11/22 00:47:03;;;;;;;26.88;16.02;;;;;;;;;;5089732;28;20027;-68
2021/11/22 00:49:28;;;;;;;24.67;13.77;;;;;;;;;;5094478;28;20043;-68
2021/11/22 00:51:53;;;;;;;21.63;15.05;;;;;;;;;;5069392;28;20111;-68
2021/11/22 00:54:19;;;;;;;26.10;15.00;;;;;;;;;;5080490;28;20476;-68
2021/11/22 00:56:44;;;;;;;30.52;17.25;;;;;;;;;;5091656;28;20028;-68
2021/11/22 00:59:10;;;;;;;29.25;15.57;;;;;;;;;;5100073;28;20052;-68
2021/11/22 01:01:36;;;;;;;25.42;15.00;;;;;;;;;;5082033;28;20051;-68
2021/11/22 01:04:02;;;;;;;24.65;15.02;;;;;;;;;;5070862;28;20442;-68
2021/11/22 01:06:27;;;;;;;22.52;15.52;;;;;;;;;;5089261;28;20020;-68
2021/11/22 01:08:52;;;;;;;24.27;15.32;;;;;;;;;;5075640;28;20050;-68
2021/11/22 01:11:17;;;;;;;26.75;15.35;;;;;;;;;;5092434;28;20476;-68
2021/11/22 01:13:43;;;;;;;25.60;14.55;;;;;;;;;;5104122;28;20023;-69
2021/11/22 01:16:08;;;;;;;25.38;15.95;;;;;;;;;;5100062;28;20085;-68
2021/11/22 01:18:33;;;;;;;24.23;15.00;;;;;;;;;;5104991;28;20372;-69
2021/11/22 01:20:58;;;;;;;22.88;14.32;;;;;;;;;;5099819;28;20063;-68
2021/11/22 01:23:24;;;;;;;20.65;13.27;;;;;;;;;;5078466;28;20059;-69
2021/11/22 01:25:49;;;;;;;20.27;14.07;;;;;;;;;;5093682;28;20051;-68
2021/11/22 01:28:14;;;;;;;24.90;14.68;;;;;;;;;;5089675;28;20023;-68
2021/11/22 01:30:40;;;;;;;23.30;14.48;;;;;;;;;;5083104;28;20026;-68
2021/11/22 01:33:06;;;;;;;21.45;14.88;;;;;;;;;;5090664;28;20077;-68
2021/11/22 01:35:31;;;;;;;25.55;14.82;;;;;;;;;;5082899;28;20036;-68
2021/11/22 01:37:57;;;;;;;21.65;14.63;;;;;;;;;;5089338;28;20079;-68
2021/11/22 01:40:23;;;;;;;24.42;15.77;;;;;;;;;;5090858;28;20030;-68
2021/11/22 01:42:50;;;;;;;27.10;15.45;;;;;;;;;;5104497;28;20108;-68
2021/11/22 01:45:16;;;;;;;23.73;15.57;;;;;;;;;;5115764;28;20024;-68
2021/11/22 01:47:42;;;;;;;24.20;15.57;;;;;;;;;;5090945;28;20063;-68
2021/11/22 01:50:09;;;;;;;25.73;16.98;;;;;;;;;;5092665;28;20059;-68
2021/11/22 01:52:34;;;;;;;29.23;16.48;;;;;;;;;;5097791;28;20121;-68
2021/11/22 01:54:59;;;;;;;26.75;17.00;;;;;;;;;;5074518;28;20043;-68
2021/11/22 01:57:25;;;;;;;26.13;16.50;;;;;;;;;;5104032;28;20023;-68
2021/11/22 01:59:50;;;;;;;27.08;16.25;;;;;;;;;;5107631;28;20034;-68
2021/11/22 02:02:15;;;;;;;24.67;15.75;;;;;;;;;;5096664;28;20512;-68
2021/11/22 02:04:41;;;;;;;21.40;14.48;;;;;;;;;;5094870;28;20290;-67
2021/11/22 02:07:06;;;;;;;19.35;13.13;;;;;;;;;;5086852;28;20104;-68
2021/11/22 02:09:32;;;;;;;18.60;12.20;;;;;;;;;;5084212;28;20024;-67
2021/11/22 02:11:58;;;;;;;21.15;12.40;;;;;;;;;;5079481;28;20024;-68
2021/11/22 02:14:23;;;;;;;16.00;12.05;;;;;;;;;;5091821;28;20483;-68
2021/11/22 02:16:48;;;;;;;19.23;12.25;;;;;;;;;;5082601;28;20031;-68
2021/11/22 02:19:14;;;;;;;20.13;12.80;;;;;;;;;;5096255;28;20028;-68
2021/11/22 02:21:40;;;;;;;19.83;12.77;;;;;;;;;;5104212;28;20102;-68
2021/11/22 02:24:05;;;;;;;18.17;12.15;;;;;;;;;;5087777;28;20114;-68
2021/11/22 02:26:30;;;;;;;19.80;12.60;;;;;;;;;;5106937;28;20308;-68
2021/11/22 02:28:56;;;;;;;20.73;13.07;;;;;;;;;;5095945;28;20027;-67
2021/11/22 02:31:21;;;;;;;22.27;14.00;;;;;;;;;;5083086;28;20047;-68
2021/11/22 02:33:51;;;;;;;19.20;12.63;;;;;;;;;;5078465;28;20502;-67
2021/11/22 02:36:16;;;;;;;23.52;13.63;;;;;;;;;;5125270;27;20038;-68
2021/11/22 02:38:41;;;;;;;18.65;12.35;;;;;;;;;;5099045;28;20024;-68
2021/11/22 02:41:08;;;;;;;19.65;12.57;;;;;;;;;;5081508;28;20479;-67
2021/11/22 02:43:34;;;;;;;16.80;11.07;;;;;;;;;;5112192;28;20080;-68
2021/11/22 02:46:00;;;;;;;14.75;10.68;;;;;;;;;;5097677;28;20088;-68
2021/11/22 02:48:25;;;;;;;14.77;10.85;;;;;;;;;;5084821;28;20438;-68
2021/11/22 02:50:50;;;;;;;26.10;14.13;;;;;;;;;;5106558;28;20032;-68
2021/11/22 02:53:16;;;;;;;18.90;11.07;;;;;;;;;;5091324;28;20035;-67
2021/11/22 02:55:42;;;;;;;17.60;11.90;;;;;;;;;;5097875;28;20027;-68
2021/11/22 02:58:07;;;;;;;18.60;12.00;;;;;;;;;;5092417;28;20383;-67
2021/11/22 03:00:34;;;;;;;18.92;11.00;;;;;;;;;;5103086;28;20020;-68
2021/11/22 03:02:59;;;;;;;15.90;10.95;;;;;;;;;;5088963;28;20440;-68
2021/11/22 03:05:25;;;;;;;15.27;10.05;;;;;;;;;;5111695;28;20051;-68
2021/11/22 03:07:51;;;;;;;18.15;10.70;;;;;;;;;;5101419;28;20023;-68
2021/11/22 03:10:17;;;;;;;15.55;9.77;;;;;;;;;;5101959;28;20464;-68
2021/11/22 03:12:42;;;;;;;14.82;9.88;;;;;;;;;;5092995;28;20031;-67
2021/11/22 03:15:10;;;;;;;16.63;9.88;;;;;;;;;;5091828;28;20453;-68
2021/11/22 03:17:35;;;;;;;16.40;11.05;;;;;;;;;;5100567;28;20433;-67
2021/11/22 03:20:00;;;;;;;18.85;11.13;;;;;;;;;;5084872;28;20028;-68
2021/11/22 03:22:26;;;;;;;17.35;11.23;;;;;;;;;;5071006;28;20029;-67
2021/11/22 03:24:51;;;;;;;20.10;11.60;;;;;;;;;;5086089;28;20024;-68
2021/11/22 03:27:16;;;;;;;21.50;12.45;;;;;;;;;;5075693;28;20055;-67
2021/11/22 03:29:42;;;;;;;19.45;12.30;;;;;;;;;;5106872;28;20024;-67
2021/11/22 03:32:07;;;;;;;18.35;11.93;;;;;;;;;;5086005;28;20071;-68
2021/11/22 03:34:33;;;;;;;20.95;12.57;;;;;;;;;;5096972;28;20024;-68
2021/11/22 03:37:03;;;;;;;21.10;14.60;;;;;;;;;;5092041;28;20020;-68
2021/11/22 03:39:31;;;;;;;23.27;13.63;;;;;;;;;;5072834;28;20090;-67
2021/11/22 03:41:58;;;;;;;27.15;14.75;;;;;;;;;;5102251;28;20464;-67
2021/11/22 03:44:24;;;;;;;27.33;14.13;;;;;;;;;;5099303;28;20024;-68
2021/11/22 03:46:53;;;;;;;26.75;14.32;;;;;;;;;;5099176;28;20043;-68
2021/11/22 03:49:19;;;;;;;24.23;13.95;;;;;;;;;;5111599;28;20024;-68
2021/11/22 03:51:44;;;;;;;18.33;13.05;;;;;;;;;;5110994;28;20034;-68
2021/11/22 03:54:10;;;;;;;23.20;13.20;;;;;;;;;;5073690;28;20043;-67
2021/11/22 03:56:36;;;;;;;19.42;12.73;;;;;;;;;;5090953;28;20008;-67
2021/11/22 03:59:01;;;;;;;21.90;13.35;;;;;;;;;;5092168;28;20135;-68
2021/11/22 04:01:27;;;;;;;22.50;12.15;;;;;;;;;;5084042;28;20049;-68
2021/11/22 04:03:52;;;;;;;18.23;11.85;;;;;;;;;;5090006;28;20021;-67
2021/11/22 04:06:17;;;;;;;22.30;12.95;;;;;;;;;;5105194;28;20031;-68
2021/11/22 04:08:43;;;;;;;21.27;12.93;;;;;;;;;;5104908;28;20089;-67
2021/11/22 04:11:09;;;;;;;22.40;13.45;;;;;;;;;;5093789;28;20118;-68
2021/11/22 04:13:34;;;;;;;23.48;13.48;;;;;;;;;;5110201;28;20156;-68
2021/11/22 04:16:00;;;;;;;24.33;12.95;;;;;;;;;;5089584;28;20031;-68
2021/11/22 04:18:25;;;;;;;23.23;13.38;;;;;;;;;;5085519;28;20108;-67
2021/11/22 04:20:50;;;;;;;19.98;13.18;;;;;;;;;;5099623;28;20588;-67
2021/11/22 04:23:16;;;;;;;27.05;13.35;;;;;;;;;;5075583;28;20016;-68
2021/11/22 04:25:41;;;;;;;18.60;12.55;;;;;;;;;;5081181;28;20063;-68
2021/11/22 04:28:07;;;;;;;25.10;13.55;;;;;;;;;;5103650;28;20031;-67
2021/11/22 04:30:33;;;;;;;21.10;13.88;;;;;;;;;;5096601;28;20016;-67
2021/11/22 04:32:59;;;;;;;20.80;13.02;;;;;;;;;;5085287;28;20501;-68
2021/11/22 04:35:24;;;;;;;20.25;12.38;;;;;;;;;;5093717;28;20081;-68
2021/11/22 04:37:50;;;;;;;19.15;11.55;;;;;;;;;;5095838;28;20039;-68
2021/11/22 04:40:16;;;;;;;17.20;10.20;;;;;;;;;;5076412;28;20545;-68
2021/11/22 04:42:45;;;;;;;15.10;10.63;;;;;;;;;;5093496;28;20204;-68
2021/11/22 04:45:10;;;;;;;14.60;9.98;;;;;;;;;;5083416;28;20099;-68
2021/11/22 04:47:36;;;;;;;14.05;9.57;;;;;;;;;;5075882;28;20043;-68
2021/11/22 04:50:01;;;;;;;11.77;8.25;;;;;;;;;;5110788;28;20028;-68
2021/11/22 04:52:26;;;;;;;16.00;9.45;;;;;;;;;;5093903;28;20051;-68
2021/11/22 04:54:52;;;;;;;14.20;10.00;;;;;;;;;;5088590;28;20008;-68
2021/11/22 04:57:17;;;;;;;15.10;9.48;;;;;;;;;;5086029;28;20103;-68
2021/11/22 04:59:43;;;;;;;13.10;9.50;;;;;;;;;;5103134;28;20026;-68
2021/11/22 05:02:09;;;;;;;17.30;10.70;;;;;;;;;;5080277;28;20120;-68
2021/11/22 05:04:35;;;;;;;15.00;10.20;;;;;;;;;;5091854;28;20023;-68
2021/11/22 05:07:01;;;;;;;14.25;10.75;;;;;;;;;;5079278;28;20025;-68
2021/11/22 05:09:26;;;;;;;14.25;9.85;;;;;;;;;;5103991;28;20026;-68
2021/11/22 05:11:51;;;;;;;13.18;9.85;;;;;;;;;;5080868;28;20028;-69
2021/11/22 05:14:17;;;;;;;14.85;9.85;;;;;;;;;;5093193;28;20016;-68
2021/11/22 05:16:43;;;;;;;16.10;9.88;;;;;;;;;;5094822;28;20023;-68
2021/11/22 05:19:09;;;;;;;16.80;10.43;;;;;;;;;;5113090;28;20403;-68
2021/11/22 05:21:35;;;;;;;18.05;10.20;;;;;;;;;;5097601;28;20043;-68
2021/11/22 05:24:00;;;;;;;15.95;10.23;;;;;;;;;;5090504;28;20039;-68
2021/11/22 05:26:25;;;;;;;18.38;10.57;;;;;;;;;;5089680;28;20020;-67
2021/11/22 05:28:51;;;;;;;21.70;11.57;;;;;;;;;;5108033;28;20075;-67
2021/11/22 05:31:16;;;;;;;21.75;13.40;;;;;;;;;;5075545;28;20411;-67
2021/11/22 05:33:41;;;;;;;22.25;12.65;;;;;;;;;;5107635;28;20143;-67
2021/11/22 05:36:07;;;;;;;18.85;11.23;;;;;;;;;;5105641;28;20035;-67
2021/11/22 05:38:32;;;;;;;21.80;12.27;;;;;;;;;;5088235;28;20046;-68
2021/11/22 05:40:58;;;;;;;21.10;12.40;;;;;;;;;;5075152;28;20024;-68
2021/11/22 05:43:23;;;;;;;20.30;11.65;;;;;;;;;;5103169;28;20023;-67
2021/11/22 05:45:48;;;;;;;20.33;12.02;;;;;;;;;;5087325;28;20366;-68
2021/11/22 05:48:14;;;;;;;19.42;11.27;;;;;;;;;;5092217;28;20055;-67
2021/11/22 05:50:39;;;;;;;27.10;12.25;;;;;;;;;;5104989;28;20196;-67
2021/11/22 05:53:05;;;;;;;11.60;8.60;;;;;;;;;;5088986;28;20024;-67
2021/11/22 05:55:35;;;;;;;26.95;10.15;;;;;;;;;;5081938;28;20034;-68
2021/11/22 05:58:04;;;;;;;14.45;9.18;;;;;;;;;;5097251;28;20024;-68
2021/11/22 06:00:30;;;;;;;15.25;9.30;;;;;;;;;;5085435;28;20110;-68
2021/11/22 06:02:55;;;;;;;20.90;9.35;;;;;;;;;;5093037;28;20525;-68
2021/11/22 06:05:20;;;;;;;21.75;9.02;;;;;;;;;;5112507;28;20015;-68
2021/11/22 06:07:46;;;;;;;17.50;8.27;;;;;;;;;;5089380;28;20078;-68
2021/11/22 06:10:11;;;;;;;23.05;10.35;;;;;;;;;;5083768;28;20027;-67
2021/11/22 06:12:36;;;;;;;20.70;8.60;;;;;;;;;;5081811;28;20046;-67
2021/11/22 06:15:02;;;;;;;16.58;8.35;;;;;;;;;;5095080;28;20027;-67
2021/11/22 06:17:27;;;;;;;18.05;9.60;;;;;;;;;;5095247;28;20085;-68
2021/11/22 06:19:54;;;;;;;21.85;10.15;;;;;;;;;;5087612;28;20150;-68
2021/11/22 06:22:19;;;;;;;32.55;10.60;;;;;;;;;;5093243;28;20468;-68
2021/11/22 06:24:45;;;;;;;21.83;10.13;;;;;;;;;;5083587;28;20107;-68
2021/11/22 06:27:10;;;;;;;28.05;10.38;;;;;;;;;;5103991;28;20073;-68
2021/11/22 06:29:38;;;;;;;37.63;11.75;;;;;;;;;;5090137;28;20081;-68
2021/11/22 06:32:10;;;;;;;19.02;10.95;;;;;;;;;;5086358;28;20063;-68
2021/11/22 06:34:36;;;;;;;28.77;11.30;;;;;;;;;;5078778;28;20429;-68
2021/11/22 06:37:01;;;;;;;20.85;10.55;;;;;;;;;;5100197;28;20499;-69
2021/11/22 06:39:26;;;;;;;16.70;9.48;;;;;;;;;;5082826;28;20028;-69
2021/11/22 06:41:52;;;;;;;16.85;9.68;;;;;;;;;;5076512;28;20488;-68
2021/11/22 06:44:20;;;;;;;15.98;10.02;;;;;;;;;;5073512;28;20576;-68
2021/11/22 06:46:48;;;;;;;14.60;9.98;;;;;;;;;;5082985;28;20073;-68
2021/11/22 06:49:13;;;;;;;12.77;8.82;;;;;;;;;;5092789;28;20042;-68
2021/11/22 06:51:39;;;;;;;13.98;8.75;;;;;;;;;;5091273;28;20025;-68
2021/11/22 06:54:04;;;;;;;16.27;8.95;;;;;;;;;;5085121;28;20024;-68
2021/11/22 06:56:29;;;;;;;16.25;9.90;;;;;;;;;;5084261;28;20088;-68
2021/11/22 06:58:54;;;;;;;15.57;10.27;;;;;;;;;;5093878;28;20023;-69
2021/11/22 07:01:20;;;;;;;15.95;9.43;;;;;;;;;;5093207;27;20023;-69
2021/11/22 07:03:45;;;;;;;15.85;9.82;;;;;;;;;;5113007;28;20479;-68
2021/11/22 07:06:11;;;;;;;15.95;11.25;;;;;;;;;;5098088;28;20020;-68
2021/11/22 07:08:36;;;;;;;12.32;9.65;;;;;;;;;;5082786;28;20062;-69
2021/11/22 07:11:02;;;;;;;10.65;8.00;;;;;;;;;;5088961;28;20127;-70
2021/11/22 07:13:27;;;;;;;10.10;7.57;;;;;;;;;;5107640;28;20023;-70
2021/11/22 07:15:52;;;;;;;9.40;6.68;;;;;;;;;;5114050;28;20450;-70
2021/11/22 07:18:18;;;;;;;9.10;6.05;;;;;;;;;;5103474;28;20382;-70
2021/11/22 07:20:46;;;;;;;6.10;5.35;;;;;;;;;;5097230;28;20078;-69
2021/11/22 07:23:13;;;;;;;6.45;5.47;;;;;;;;;;5081601;28;20054;-68
2021/11/22 07:25:38;;;;;;;7.55;5.20;;;;;;;;;;5087893;28;20015;-68
2021/11/22 07:28:04;;;;;;;4.82;3.50;;;;;;;;;;5080513;28;20045;-68
2021/11/22 07:30:29;;;;;;;5.93;4.25;;;;;;;;;;5104911;28;20081;-68
2021/11/22 07:32:54;;;;;;;6.20;4.38;;;;;;;;;;5093104;28;20048;-68
2021/11/22 07:35:21;;;;;;;5.20;4.25;;;;;;;;;;5103684;28;20037;-69
2021/11/22 07:37:48;;;;;;;6.47;4.22;;;;;;;;;;5089842;28;20055;-71
2021/11/22 07:40:13;;;;;;;5.95;4.22;;;;;;;;;;5103041;28;20024;-69
2021/11/22 07:42:39;;;;;;;6.50;4.60;;;;;;;;;;5103634;28;20077;-68
2021/11/22 07:45:05;;;;;;;6.82;4.70;;;;;;;;;;5091588;28;20020;-69
2021/11/22 07:47:30;;;;;;;6.38;4.63;;;;;;;;;;5071604;28;20533;-70
2021/11/22 07:49:55;;;;;;;4.35;3.67;;;;;;;;;;5089295;28;20016;-70
2021/11/22 07:52:22;;;;;;;5.18;3.55;;;;;;;;;;5090214;28;20384;-69
2021/11/22 07:54:48;;;;;;;5.93;4.15;;;;;;;;;;5086770;28;20020;-69
2021/11/22 07:57:13;;;;;;;7.22;4.85;;;;;;;;;;5096677;28;20043;-69
2021/11/22 07:59:38;;;;;;;6.88;5.20;;;;;;;;;;5076530;28;20024;-69
2021/11/22 08:02:04;;;;;;;7.70;5.25;;;;;;;;;;5087356;28;20546;-68
2021/11/22 08:04:29;;;;;;;8.35;5.43;;;;;;;;;;5072156;28;20012;-68
2021/11/22 08:07:00;;;;;;;8.90;6.03;;;;;;;;;;5084787;28;20109;-68
2021/11/22 08:09:31;;;;;;;9.98;6.50;;;;;;;;;;5090896;28;20016;-68
2021/11/22 08:14:33;;;;;;;10.05;6.75;;;;;;;;;;5112794;28;20434;-69
2021/11/22 08:16:59;;;;;;;9.43;6.78;;;;;;;;;;5102213;28;20467;-68
2021/11/22 08:19:24;;;;;;;8.43;7.10;;;;;;;;;;5107458;28;20054;-68
2021/11/22 08:21:49;;;;;;;9.15;6.85;;;;;;;;;;5097783;28;20024;-68
2021/11/22 08:24:15;;;;;;;8.45;6.32;;;;;;;;;;5077135;28;20048;-68
2021/11/22 08:26:40;;;;;;;9.15;6.07;;;;;;;;;;5082598;28;20054;-69
2021/11/22 08:29:05;;;;;;;8.02;5.18;;;;;;;;;;5099147;28;20405;-69
2021/11/22 08:31:30;;;;;;;8.43;5.82;;;;;;;;;;5094045;28;20068;-69
2021/11/22 08:33:56;;;;;;;5.57;4.70;;;;;;;;;;5091707;28;20095;-68
2021/11/22 08:36:21;;;;;;;5.28;4.25;;;;;;;;;;5097008;28;20420;-69
2021/11/22 08:38:48;;;;;;;5.55;4.68;;;;;;;;;;5086089;28;20024;-68
2021/11/22 08:41:13;;;;;;;5.80;5.07;;;;;;;;;;5083544;28;20107;-69
2021/11/22 08:43:38;;;;;;;7.35;5.15;;;;;;;;;;5103026;28;20115;-69
2021/11/22 08:46:03;;;;;;;6.82;4.70;;;;;;;;;;5111115;28;20019;-70
2021/11/22 08:48:29;;;;;;;5.35;4.28;;;;;;;;;;5094690;28;20019;-69
2021/11/22 08:50:54;;;;;;;6.75;4.80;;;;;;;;;;5102475;28;20020;-69
2021/11/22 08:53:20;;;;;;;6.45;4.78;;;;;;;;;;5084344;28;20028;-69
2021/11/22 08:55:45;;;;;;;5.32;4.47;;;;;;;;;;5082818;28;20106;-70
2021/11/22 08:58:10;;;;;;;4.97;3.65;;;;;;;;;;5098209;28;20593;-69
2021/11/22 09:00:37;;;;;;;5.10;3.78;;;;;;;;;;5089004;28;20778;-70
2021/11/22 09:03:02;;;;;;;4.78;3.95;;;;;;;;;;5086293;28;20016;-70
2021/11/22 09:05:28;;;;;;;4.35;3.80;;;;;;;;;;5094049;28;20016;-69
2021/11/22 09:07:54;;;;;;;4.07;3.63;;;;;;;;;;5091407;28;20020;-69
2021/11/22 09:10:21;;;;;;;3.63;3.25;;;;;;;;;;5091588;28;20069;-69
2021/11/22 09:12:46;;;;;;;4.10;3.58;;;;;;;;;;5088597;28;20111;-70
2021/11/22 09:15:12;;;;;;;4.30;2.90;;;;;;;;;;5086836;28;20111;-69
2021/11/22 09:17:38;;;;;;;3.90;2.90;;;;;;;;;;5105893;28;20016;-68
2021/11/22 09:20:03;;;;;;;5.88;3.95;;;;;;;;;;5101591;28;20018;-69
2021/11/22 09:22:29;;;;;;;5.07;3.60;;;;;;;;;;5091358;28;20015;-69
2021/11/22 09:24:54;;;;;;;4.75;3.20;;;;;;;;;;5076453;28;20112;-70
2021/11/22 09:27:19;;;;;;;4.10;3.15;;;;;;;;;;5087085;28;20055;-69
2021/11/22 09:29:45;;;;;;;4.05;3.50;;;;;;;;;;5091068;28;20019;-68
2021/11/22 09:32:10;;;;;;;6.40;3.63;;;;;;;;;;5074921;28;20052;-68
2021/11/22 09:34:36;;;;;;;4.40;3.67;;;;;;;;;;5071267;28;20120;-68
2021/11/22 09:37:01;;;;;;;3.80;2.80;;;;;;;;;;5080089;28;20090;-69
2021/11/22 09:39:27;;;;;;;4.97;3.00;;;;;;;;;;5110289;28;20050;-68
2021/11/22 09:41:53;;;;;;;4.82;2.53;;;;;;;;;;5092586;28;20020;-69
2021/11/22 09:44:20;;;;;;;3.42;2.70;;;;;;;;;;5111729;28;20019;-69
2021/11/22 09:46:46;;;;;;;4.18;2.50;;;;;;;;;;5106818;28;20019;-69
2021/11/22 09:49:11;;;;;;;2.75;2.55;;;;;;;;;;5088598;28;20025;-69
2021/11/22 09:51:37;;;;;;;4.28;2.80;;;;;;;;;;5090178;28;20499;-68
2021/11/22 09:54:02;;;;;;;4.05;2.75;;;;;;;;;;5071175;28;20024;-70
2021/11/22 09:56:28;;;;;;;3.35;3.03;;;;;;;;;;5091226;28;20026;-69
2021/11/22 09:58:53;;;;;;;4.10;3.45;;;;;;;;;;5097851;28;20023;-68
2021/11/22 10:01:18;;;;;;;3.33;3.03;;;;;;;;;;5101340;28;20028;-69
2021/11/22 10:04:04;;;;;;;4.63;3.20;;;;;;;;;;5095879;28;20043;-69
2021/11/22 10:06:48;;;;;;;6.18;2.85;;;;;;;;;;5093144;28;20024;-69
2021/11/22 10:09:32;;;;;;;4.65;3.30;;;;;;;;;;5097875;28;20024;-69
2021/11/22 10:11:58;;;;;;;3.53;3.22;;;;;;;;;;5100000;28;20023;-69
2021/11/22 10:14:25;;;;;;;4.28;3.38;;;;;;;;;;5093368;28;20020;-69
2021/11/22 10:16:50;;;;;;;5.45;4.00;;;;;;;;;;5080534;28;20523;-69
2021/11/22 10:19:18;;;;;;;4.35;3.92;;;;;;;;;;5083647;28;20048;-69
2021/11/22 10:21:43;;;;;;;4.40;3.85;;;;;;;;;;5077869;28;20082;-69
2021/11/22 10:24:10;;;;;;;5.10;3.40;;;;;;;;;;5082727;28;20491;-69
2021/11/22 10:26:38;;;;;;;3.35;3.03;;;;;;;;;;5092430;28;20029;-69
2021/11/22 10:29:04;;;;;;;3.90;3.22;;;;;;;;;;5077827;28;20042;-69
2021/11/22 10:31:29;;;;;;;4.32;3.35;;;;;;;;;;5106340;28;20447;-69
2021/11/22 10:33:57;;;;;;;4.03;3.20;;;;;;;;;;5090572;28;20115;-68
2021/11/22 10:36:24;;;;;;;4.55;3.00;;;;;;;;;;5091702;28;20027;-69
2021/11/22 10:38:54;;;;;;;3.92;2.58;;;;;;;;;;5093312;28;20039;-68
2021/11/22 10:41:21;;;;;;;5.05;3.45;;;;;;;;;;5100425;28;20032;-69
2021/11/22 10:43:51;;;;;;;4.68;3.33;;;;;;;;;;5108634;28;20016;-68
2021/11/22 10:46:27;;;;;;;5.38;3.10;;;;;;;;;;5092477;28;20031;-68
2021/11/22 10:48:53;;;;;;;5.00;3.22;;;;;;;;;;5097308;28;20073;-68
2021/11/22 10:51:24;;;;;;;5.00;3.67;;;;;;;;;;5080605;28;20059;-69
2021/11/22 10:53:50;;;;;;;3.80;2.88;;;;;;;;;;5069177;28;20020;-68
2021/11/22 10:56:23;;;;;;;3.60;3.30;;;;;;;;;;5089687;28;20050;-68
2021/11/22 10:59:05;;;;;;;3.05;2.75;;;;;;;;;;5085702;28;20115;-68
2021/11/22 11:01:38;;;;;;;3.05;2.75;;;;;;;;;;5087111;28;20103;-69
2021/11/22 11:04:13;;;;;;;3.28;2.80;;;;;;;;;;5092602;28;20028;-69
2021/11/22 11:06:41;;;;;;;2.92;2.45;;;;;;;;;;5103723;28;20058;-67
2021/11/22 11:09:08;;;;;;;2.85;2.50;;;;;;;;;;5100926;28;20286;-68
2021/11/22 11:11:33;;;;;;;4.78;3.00;;;;;;;;;;5096151;28;20551;-69
2021/11/22 11:14:03;;;;;;;3.10;2.40;;;;;;;;;;5096193;28;20116;-68
2021/11/22 11:16:28;;;;;;;5.55;3.90;;;;;;;;;;5084262;28;20024;-69
2021/11/22 11:18:58;;;;;;;3.80;2.88;;;;;;;;;;5084074;28;20019;-69
2021/11/22 11:21:28;;;;;;;3.58;3.17;;;;;;;;;;5108954;28;20032;-69
2021/11/22 11:23:54;;;;;;;5.47;3.72;;;;;;;;;;5081550;28;20009;-69
2021/11/22 11:26:19;;;;;;;3.85;2.95;;;;;;;;;;5073190;28;20056;-68
2021/11/22 11:28:44;;;;;;;2.85;2.60;;;;;;;;;;5098103;28;20405;-68
2021/11/22 11:31:10;;;;;;;5.50;3.35;;;;;;;;;;5084531;28;20043;-69
2021/11/22 11:33:35;;;;;;;3.72;3.13;;;;;;;;;;5104127;28;20052;-68
2021/11/22 11:36:04;;;;;;;4.40;2.97;;;;;;;;;;5113488;28;20012;-69
2021/11/22 11:38:37;;;;;;;2.80;2.60;;;;;;;;;;5111686;28;20019;-69
2021/11/22 11:41:02;;;;;;;2.80;2.50;;;;;;;;;;5083947;28;20042;-69
2021/11/22 11:43:36;;;;;;;4.32;2.70;;;;;;;;;;5086512;28;20020;-69
2021/11/22 11:46:08;;;;;;;6.03;2.70;;;;;;;;;;5093062;28;20020;-69
2021/11/22 11:48:39;;;;;;;2.55;2.03;;;;;;;;;;5093343;28;20377;-69
2021/11/22 11:51:09;;;;;;;2.65;2.38;;;;;;;;;;5098065;28;20063;-68
2021/11/22 11:53:35;;;;;;;3.83;2.28;;;;;;;;;;5085931;28;20027;-68
2021/11/22 11:56:06;;;;;;;2.83;2.33;;;;;;;;;;5089298;28;20110;-70
2021/11/22 11:58:32;;;;;;;1.40;1.30;;;;;;;;;;5083691;28;20066;-70
2021/11/22 12:00:59;;;;;;;3.97;1.67;;;;;;;;;;5089614;28;20415;-69
2021/11/22 12:03:25;;;;;;;1.83;1.48;;;;;;;;;;5075754;28;20465;-69
2021/11/22 12:05:53;;;;;;;1.40;1.00;;;;;;;;;;5090014;28;20019;-69
2021/11/22 12:08:39;;;;;;;1.33;0.98;;;;;;;;;;5098573;28;20022;-69
2021/11/22 12:11:04;;;;;;;1.27;0.75;;;;;;;;;;5080704;28;20072;-68
2021/11/22 12:13:48;;;;;;;2.25;1.02;;;;;;;;;;5083264;28;20052;-69
2021/11/22 12:16:32;;;;;;;0.60;0.60;;;;;;;;;;5091127;28;20022;-69
2021/11/22 12:19:18;;;;;;;1.15;0.93;;;;;;;;;;5074855;28;20490;-69
2021/11/22 12:21:44;;;;;;;1.38;0.88;;;;;;;;;;5087833;28;20105;-69
2021/11/22 12:24:15;;;;;;;2.40;0.60;;;;;;;;;;5072868;28;20078;-70
2021/11/22 12:26:40;;;;;;;0.70;0.30;;;;;;;;;;5073161;28;20021;-69
2021/11/22 12:29:06;;;;;;;1.08;0.30;;;;;;;;;;5080524;28;20020;-69
2021/11/22 12:31:33;;;;;;;2.15;1.63;;;;;;;;;;5086813;28;20060;-69
2021/11/22 12:34:06;;;;;;;1.85;0.50;;;;;;;;;;5088519;28;20032;-69
2021/11/22 12:36:33;;;;;;;0.57;0.38;;;;;;;;;;5086538;28;20369;-69
2021/11/22 12:39:12;;;;;;;0.47;0.20;;;;;;;;;;5091358;28;20028;-68
2021/11/22 12:41:38;;;;;;;0.85;0.30;;;;;;;;;;5081170;28;20028;-70
2021/11/22 12:44:11;;;;;;;1.23;0.40;;;;;;;;;;5073921;28;20016;-70
2021/11/22 12:46:36;;;;;;;2.85;0.50;;;;;;;;;;5080874;28;20085;-70
2021/11/22 12:49:22;;;;;;;0.40;0.20;;;;;;;;;;5111238;28;20023;-69
2021/11/22 12:51:49;;;;;;;0.77;0.43;;;;;;;;;;5078947;28;20529;-69
2021/11/22 12:54:15;;;;;;;1.13;0.20;;;;;;;;;;5077674;28;20080;-69
2021/11/22 12:56:41;;;;;;;0.45;0.20;;;;;;;;;;5090552;28;20024;-69
2021/11/22 12:59:22;;;;;;;2.05;1.05;;;;;;;;;;5071748;28;20044;-69
2021/11/22 13:01:56;;;;;;;1.10;0.30;;;;;;;;;;5080707;28;20028;-69
2021/11/22 13:04:42;;;;;;;0.80;0.20;;;;;;;;;;5072548;28;20024;-69
2021/11/22 13:07:27;;;;;;;0.50;0.20;;;;;;;;;;5090325;28;20023;-69
2021/11/22 13:09:53;;;;;;;0.60;0.20;;;;;;;;;;5091534;28;20077;-69
2021/11/22 13:12:29;;;;;;;1.42;0.50;;;;;;;;;;5075951;28;20036;-69
2021/11/22 13:15:02;;;;;;;1.77;0.95;;;;;;;;;;5072318;28;20032;-69
2021/11/22 13:17:28;;;;;;;0.60;0.32;;;;;;;;;;5100507;28;20039;-69
2021/11/22 13:19:56;;;;;;;0.77;0.40;;;;;;;;;;5092706;28;20039;-69
2021/11/22 13:22:21;;;;;;;2.42;1.15;;;;;;;;;;5107246;28;20593;-68
2021/11/22 13:24:49;;;;;;;1.02;0.70;;;;;;;;;;5080584;28;20119;-68
2021/11/22 13:27:14;;;;;;;1.88;0.70;;;;;;;;;;5082729;28;20024;-69
2021/11/22 13:29:40;;;;;;;1.77;0.40;;;;;;;;;;5075158;28;20017;-69
2021/11/22 13:32:08;;;;;;;1.48;0.80;;;;;;;;;;5096074;28;20049;-68
2021/11/22 13:34:33;;;;;;;1.10;0.85;;;;;;;;;;5081345;28;20477;-68
2021/11/22 13:37:02;;;;;;;2.13;0.70;;;;;;;;;;5096231;28;20030;-69
2021/11/22 13:39:29;;;;;;;1.67;0.60;;;;;;;;;;5091381;28;20433;-68
2021/11/22 13:41:54;;;;;;;0.52;0.40;;;;;;;;;;5080376;28;20027;-69
2021/11/22 13:44:20;;;;;;;1.85;0.30;;;;;;;;;;5091758;28;20021;-69
2021/11/22 13:46:46;;;;;;;1.45;0.20;;;;;;;;;;5073712;28;20012;-69
2021/11/22 13:49:13;;;;;;;0.50;0.10;;;;;;;;;;5099137;28;20023;-69
2021/11/22 13:51:40;;;;;;;0.47;0.20;;;;;;;;;;5098709;28;20090;-69
2021/11/22 13:54:10;;;;;;;2.05;0.20;;;;;;;;;;5076919;28;20053;-69
2021/11/22 13:56:36;;;;;;;0.43;0.20;;;;;;;;;;5083082;28;20145;-68
2021/11/22 13:59:03;;;;;;;0.65;0.17;;;;;;;;;;5087846;28;20472;-69
2021/11/22 14:01:28;;;;;;;2.17;0.20;;;;;;;;;;5092628;28;20069;-69
2021/11/22 14:03:59;;;;;;;1.40;0.30;;;;;;;;;;5089883;28;20008;-69
2021/11/22 14:06:24;;;;;;;0.80;0.20;;;;;;;;;;5091371;28;20103;-69
2021/11/22 14:08:51;;;;;;;0.73;0.20;;;;;;;;;;5088940;28;20147;-69
2021/11/22 14:11:24;;;;;;;1.15;0.30;;;;;;;;;;5089880;28;20008;-69
2021/11/22 14:13:49;;;;;;;0.90;0.20;;;;;;;;;;5093848;28;20016;-68
2021/11/22 14:16:16;;;;;;;1.17;0.30;;;;;;;;;;5093121;28;20012;-69
2021/11/22 14:18:41;;;;;;;2.38;0.45;;;;;;;;;;5090596;28;20097;-68
2021/11/22 14:21:07;;;;;;;1.65;0.40;;;;;;;;;;5088172;28;20066;-69
2021/11/22 14:23:33;;;;;;;0.40;0.30;;;;;;;;;;5082390;28;20111;-69
2021/11/22 14:25:59;;;;;;;1.70;0.20;;;;;;;;;;5080589;28;20016;-68
2021/11/22 14:28:25;;;;;;;1.05;0.20;;;;;;;;;;5089857;28;20107;-68
2021/11/22 14:30:50;;;;;;;0.40;0.30;;;;;;;;;;5075219;28;20182;-68